• Join FlightAware (Why Join?)
  • Login
  • US Flag 
08:29AM EDT


 

Airport Tracker/Info


-or-


 

Live Flight TrackerFlight Track Log ✈ SWA655 ✈ 11-Apr-2013 ✈ KLAS - KMCO

Flight Track Log - Related Links

Times and Time Zones

All times are in EDT time to prevent confusion due to time zone crossing. See the SWA655 flight status page for this flight to view local times or setup timezone preferences in your user account.

Time Position Orientation Groundspeed Altitude Reporting Facility
EDT Latitude Longitude Course Direction KTS MPH feet Rate Location/Type
08:50PM 36.0761 -115.1789 237° Southwest 161 185 3,400  Level Los Angeles Center
08:52PM 36.0258 -115.2750 237° Southwest 276 318 6,700 2,280 Climbing Los Angeles Center
08:53PM 35.9472 -115.2903 189° South 287 330 9,500 2,040 Climbing Los Angeles Center
08:54PM 35.9247 -115.1906 106° East 315 362 11,200 1,800 Climbing Los Angeles Center
08:55PM 35.9250 -115.0617 90° East 366 421 13,500 2,520 Climbing Los Angeles Center
08:56PM 35.9253 -114.9275 90° East 386 444 16,500 2,880 Climbing Los Angeles Center
08:57PM 35.9247 -114.7594 90° East 406 467 19,500 2,400 Climbing Los Angeles Center
08:58PM 35.9256 -114.6144 90° East 420 483 21,500 1,920 Climbing Los Angeles Center
08:59PM 35.9261 -114.4650 90° East 431 496 23,500 1,800 Climbing Los Angeles Center
09:00PM 35.9250 -114.3103 90° East 443 510 25,300 1,560 Climbing Los Angeles Center
09:01PM 35.9250 -114.1508 90° East 459 528 26,800 1,440 Climbing Los Angeles Center
09:02PM 35.9239 -113.9550 90° East 472 543 28,300 1,440 Climbing Los Angeles Center
09:03PM 35.9067 -113.7875 97° East 488 562 29,900 1,380 Climbing Los Angeles Center
09:04PM 35.8789 -113.6214 102° East 493 567 31,200 1,320 Climbing Los Angeles Center
09:05PM 35.8528 -113.4525 101° East 502 578 32,700 1,200 Climbing Los Angeles Center
09:06PM 35.8261 -113.2856 101° East 500 575 33,800 1,080 Climbing Los Angeles Center
09:07PM 35.7983 -113.1178 101° East 500 575 35,000 540 Climbing Los Angeles Center
09:08PM 35.7711 -112.9492 101° East 500 575 35,000 360 Level Los Angeles Center
09:09PM 35.7383 -112.7469 101° East 499 574 35,800 900 Climbing Los Angeles Center
09:10PM 35.7111 -112.5814 101° East 496 571 36,900 540 Climbing Los Angeles Center
09:11PM 35.6831 -112.4178 102° East 490 564 37,000  Climbing Los Angeles Center
09:12PM 35.6531 -112.2492 102° East 503 579 37,000  Level Los Angeles Center
09:13PM 35.6250 -112.0844 102° East 498 573 37,000  Level Los Angeles Center
09:14PM 35.5947 -111.9158 102° East 505 581 37,000  Level Albuquerque Center
09:15PM 35.5858 -111.7467 94° East 498 573 37,000  Level Albuquerque Center
09:16PM 35.5811 -111.5750 92° East 503 579 37,000  Level Albuquerque Center
09:17PM 35.5764 -111.3997 92° East 499 574 37,000  Level Albuquerque Center
09:18PM 35.5725 -111.2367 92° East 499 574 37,000  Level Albuquerque Center
09:19PM 35.5650 -111.0456 93° East 502 578 37,000  Level Albuquerque Center
09:20PM 35.5525 -110.8847 95° East 498 573 37,000  Level Albuquerque Center
09:21PM 35.5389 -110.6964 95° East 497 572 37,000  Level Albuquerque Center
09:22PM 35.5261 -110.5347 96° East 498 573 37,000  Level Albuquerque Center
09:24PM 35.5125 -110.3439 95° East 502 578 37,000  Level Albuquerque Center
09:25PM 35.4983 -110.1786 96° East 506 582 37,000  Level Albuquerque Center
09:26PM 35.4856 -110.0161 95° East 504 580 37,000  Level Albuquerque Center
09:27PM 35.4700 -109.8247 96° East 504 580 37,000  Level Albuquerque Center
09:28PM 35.4569 -109.6611 96° East 506 582 37,000  Level Albuquerque Center
09:29PM 35.4406 -109.4678 96° East 509 586 37,000  Level Albuquerque Center
09:30PM 35.4256 -109.3011 96° East 514 592 37,000  Level Albuquerque Center
09:31PM 35.4081 -109.1100 96° East 510 587 37,000  Level Albuquerque Center
09:32PM 35.3939 -108.9461 96° East 508 585 37,000  Level Albuquerque Center
09:33PM 35.3783 -108.7811 97° East 511 588 37,000  Level Albuquerque Center
09:34PM 35.3603 -108.5889 97° East 511 588 37,000  Level Albuquerque Center
09:35PM 35.3456 -108.4244 96° East 510 587 37,000  Level Albuquerque Center
09:36PM 35.3264 -108.2322 97° East 511 588 37,000  Level Albuquerque Center
09:37PM 35.3111 -108.0672 96° East 511 588 37,000  Level Albuquerque Center
09:38PM 35.2914 -107.8750 97° East 511 588 37,000  Level Albuquerque Center
09:39PM 35.2750 -107.7097 97° East 512 589 37,000  Level Albuquerque Center
09:40PM 35.2575 -107.5456 97° East 510 587 37,000  Level Albuquerque Center
09:41PM 35.2383 -107.3639 97° East 511 588 37,000  Level Albuquerque Center
09:42PM 35.2169 -107.1653 97° East 518 596 37,000  Level Albuquerque Center
09:43PM 35.1983 -106.9906 97° East 518 596 37,000  Level Albuquerque Center
09:44PM 35.1800 -106.8247 98° East 516 594 37,000  Level Albuquerque Center
09:45PM 35.1614 -106.6283 97° East 519 597 37,000  Level Albuquerque Center
09:46PM 35.1408 -106.4753 99° East 525 604 37,000  Level Albuquerque Center
09:47PM 35.1250 -106.2983 96° East 524 603 37,000  Level Albuquerque Center
09:48PM 35.1092 -106.1100 96° East 515 593 37,000  Level Albuquerque Center
09:49PM 35.0950 -105.9475 96° East 523 602 37,000  Level Albuquerque Center
09:50PM 35.0761 -105.7564 97° East 519 597 37,000  Level Albuquerque Center
09:51PM 35.0586 -105.5800 97° East 519 597 37,000  Level Albuquerque Center
09:52PM 35.0394 -105.3744 96° East 519 597 37,000  Level Albuquerque Center
09:53PM 35.0228 -105.1989 97° East 518 596 37,000  Level Albuquerque Center
09:54PM 35.0067 -105.0231 96° East 518 596 37,000  Level Albuquerque Center
09:55PM 34.9881 -104.8461 97° East 522 601 37,000  Level Albuquerque Center
09:56PM 34.9692 -104.6697 97° East 523 602 37,000  Level Albuquerque Center
09:57PM 34.9522 -104.4936 97° East 523 602 37,000  Level Albuquerque Center
09:58PM 34.9339 -104.3175 97° East 524 603 37,000  Level Albuquerque Center
09:59PM 34.9153 -104.1408 97° East 527 606 37,000  Level Albuquerque Center
10:00PM 34.8928 -103.9339 97° East 529 609 37,000  Level Albuquerque Center
10:01PM 34.8733 -103.7558 98° East 530 610 37,000  Level Albuquerque Center
10:02PM 34.8536 -103.5781 98° East 528 608 37,000  Level Albuquerque Center
10:03PM 34.8347 -103.4003 97° East 528 608 37,000  Level Albuquerque Center
10:04PM 34.8144 -103.2231 98° East 526 605 37,000  Level Albuquerque Center
10:06PM 34.7933 -103.0458 98° East 526 605 37,000  Level Albuquerque Center
10:07PM 34.7728 -102.8706 98° East 523 602 37,000  Level Albuquerque Center
10:08PM 34.7522 -102.6947 98° East 522 601 37,000  Level Albuquerque Center
10:09PM 34.7300 -102.5189 99° East 522 601 37,000  Level Albuquerque Center
10:10PM 34.7092 -102.3456 98° East 522 601 37,000  Level Albuquerque Center
10:11PM 34.6872 -102.1728 99° East 522 601 37,000  Level Albuquerque Center
10:12PM 34.6614 -101.9667 99° East 520 598 37,000  Level Albuquerque Center
10:13PM 34.6397 -101.7956 99° East 518 596 37,000  Level Albuquerque Center
10:14PM 34.6183 -101.6242 99° East 518 596 37,000  Level Albuquerque Center
10:15PM 34.5967 -101.4522 99° East 520 598 37,000  Level Albuquerque Center
10:16PM 34.5744 -101.2772 99° East 524 603 37,000  Level Albuquerque Center
10:17PM 34.5508 -101.1019 99° East 527 606 37,000  Level Albuquerque Center
10:18PM 34.5236 -100.8919 99° East 529 609 37,000  Level Albuquerque Center
10:19PM 34.4997 -100.7183 99° East 526 605 37,000  Level Albuquerque Center
10:20PM 34.4761 -100.5439 99° East 526 605 37,000  Level Albuquerque Center
10:21PM 34.4519 -100.3692 99° East 527 606 37,000  Level Albuquerque Center
10:22PM 34.4278 -100.1958 100° East 525 604 37,000  Level Albuquerque Center
10:22PM 34.4117 -100.0919 101° East 523 602 37,000  Level Fort Worth Center
10:23PM 34.3883 -99.9150 99° East 523 602 37,000  Level Fort Worth Center
10:24PM 34.3625 -99.7406 100° East 523 602 37,000  Level Fort Worth Center
10:25PM 34.3400 -99.5892 100° East 523 602 37,000  Level Fort Worth Center
10:26PM 34.3139 -99.4100 100° East 523 602 37,000  Level Fort Worth Center
10:27PM 34.2872 -99.2408 101° East 523 602 37,000  Level Fort Worth Center
10:28PM 34.2625 -99.0669 100° East 523 602 37,000  Level Fort Worth Center
10:29PM 34.2356 -98.8931 101° East 523 602 37,000  Level Fort Worth Center
10:30PM 34.2064 -98.7017 100° East 523 602 37,000  Level Fort Worth Center
10:31PM 34.1767 -98.5231 101° East 528 608 37,000  Level Fort Worth Center
10:32PM 34.1511 -98.3522 100° East 528 608 37,000  Level Fort Worth Center
10:33PM 34.1208 -98.1761 102° East 528 608 37,000  Level Fort Worth Center
10:34PM 34.0986 -98.0381 101° East 528 608 37,000  Level Fort Worth Center
10:35PM 34.0725 -97.8422 99° East 528 608 37,000  Level Fort Worth Center
10:36PM 34.0458 -97.6692 100° East 528 608 37,000  Level Fort Worth Center
10:37PM 34.0189 -97.4961 101° East 528 608 37,000  Level Fort Worth Center
10:38PM 33.9897 -97.3233 101° East 528 608 37,000  Level Fort Worth Center
10:39PM 33.9561 -97.1356 102° East 523 602 37,000  Level Fort Worth Center
10:40PM 33.9283 -96.9603 101° East 523 602 37,000  Level Fort Worth Center
10:41PM 33.8983 -96.7878 102° East 523 602 37,000  Level Fort Worth Center
10:42PM 33.8683 -96.6156 102° East 528 608 37,000  Level Fort Worth Center
10:43PM 33.8400 -96.4458 101° East 528 608 37,000  Level Fort Worth Center
10:44PM 33.8114 -96.2736 101° East 523 602 37,000  Level Fort Worth Center
10:45PM 33.7825 -96.1089 102° East 523 602 37,000  Level Fort Worth Center
10:46PM 33.7539 -95.9519 102° East 523 602 37,000  Level Fort Worth Center
10:47PM 33.7225 -95.7803 102° East 523 602 37,000  Level Fort Worth Center
10:48PM 33.6931 -95.6111 102° East 523 602 37,000  Level Fort Worth Center
10:49PM 33.6569 -95.4272 103° East 523 602 37,000  Level Fort Worth Center
10:50PM 33.6269 -95.2581 102° East 523 602 37,000  Level Fort Worth Center
10:51PM 33.5967 -95.0844 102° East 523 602 37,000  Level Fort Worth Center
10:52PM 33.5642 -94.9131 103° East 523 602 37,000  Level Fort Worth Center
10:53PM 33.5317 -94.7472 103° East 518 596 37,000  Level Fort Worth Center
10:54PM 33.5006 -94.5761 102° East 518 596 37,000  Level Fort Worth Center
10:55PM 33.4675 -94.4106 103° East 518 596 37,000  Level Fort Worth Center
10:56PM 33.4364 -94.2422 102° East 518 596 37,000  Level Fort Worth Center
10:57PM 33.4050 -94.0792 103° East 518 596 37,000  Level Fort Worth Center
10:58PM 33.3758 -93.9236 103° East 518 596 37,000  Level Fort Worth Center
10:59PM 33.3414 -93.7458 103° East 529 609 37,000  Level Fort Worth Center
11:00PM 33.3094 -93.5856 103° East 524 603 37,000  Level Fort Worth Center
11:01PM 33.2772 -93.4206 103° East 513 590 37,000  Level Fort Worth Center
11:02PM 33.2447 -93.2556 103° East 508 585 37,000  Level Fort Worth Center
11:03PM 33.2100 -93.0933 104° East 503 579 37,000  Level Fort Worth Center
11:04PM 33.1769 -92.9264 103° East 508 585 37,000  Level Fort Worth Center
11:05PM 33.1439 -92.7617 103° East 508 585 37,000  Level Fort Worth Center
11:06PM 33.1086 -92.5975 104° East 508 585 37,000  Level Fort Worth Center
11:09PM 33.0239 -92.1983 104° East 498 573 37,000  Level Memphis Center
11:10PM 32.9906 -92.0317 103° East 504 580 37,000  Level Memphis Center
11:11PM 32.9511 -91.8650 106° East 515 593 37,000  Level Memphis Center
11:12PM 32.9194 -91.7011 103° East 515 593 37,000 300 Level Memphis Center
11:13PM 32.8814 -91.5372 105° East 515 593 37,600 660 Climbing Memphis Center
11:14PM 32.8433 -91.3736 105° East 515 593 38,400 600 Climbing Memphis Center
11:15PM 32.8111 -91.2100 103° East 515 593 38,900 300 Climbing Memphis Center
11:16PM 32.7703 -91.0417 106° East 515 593 39,000  Climbing Memphis Center
11:17PM 32.7356 -90.8686 103° East 520 598 39,000  Level Memphis Center
11:18PM 32.6964 -90.7028 106° East 520 598 39,000  Level Memphis Center
11:19PM 32.6592 -90.5350 105° East 520 598 39,000  Level Memphis Center
11:20PM 32.6219 -90.3672 105° East 520 598 39,000  Level Memphis Center
11:21PM 32.5800 -90.1822 105° East 520 598 39,000  Level Memphis Center
11:22PM 32.5419 -90.0147 105° East 520 598 39,000  Level Memphis Center
11:23PM 32.5017 -89.8475 106° East 520 598 39,000  Level Memphis Center
11:24PM 32.4656 -89.6825 105° East 525 604 39,000  Level Memphis Center
11:25PM 32.4247 -89.5106 106° East 525 604 39,000  Level Memphis Center
11:26PM 32.3858 -89.3436 105° East 530 610 39,000  Level Memphis Center
11:27PM 32.3447 -89.1769 106° East 530 610 39,000  Level Memphis Center
11:28PM 32.3056 -89.0128 106° East 530 610 39,000  Level Memphis Center
11:29PM 32.2681 -88.8464 105° East 524 603 39,000  Level Memphis Center
11:30PM 32.2283 -88.6825 106° East 524 603 39,000  Level Memphis Center
11:31PM 32.1931 -88.5358 106° East 518 596 39,000  Level Memphis Center
11:33PM 32.0994 -88.1600 106° East 506 582 39,000  Level Atlanta Center
11:34PM 32.0608 -88.0039 106° East 501 577 39,000  Level Atlanta Center
11:35PM 32.0258 -87.8531 105° East 495 570 39,000  Level Atlanta Center
11:36PM 31.9867 -87.6969 106° East 495 570 39,000  Level Atlanta Center
11:37PM 31.9469 -87.5608 109° East 489 563 39,000  Level Atlanta Center
11:38PM 31.9119 -87.3956 104° East 484 557 39,000  Level Atlanta Center
11:39PM 31.8697 -87.2569 110° East 489 563 39,000  Level Atlanta Center
11:41PM 31.7833 -86.9153 106° East 493 567 39,000  Level Jacksonville Center
11:42PM 31.7419 -86.7644 108° East 487 560 39,000  Level Jacksonville Center
11:43PM 31.7028 -86.6139 107° East 487 560 39,000  Level Jacksonville Center
11:44PM 31.6631 -86.4658 107° East 487 560 39,000  Level Jacksonville Center
11:45PM 31.6214 -86.3131 108° East 487 560 39,000  Level Jacksonville Center
11:46PM 31.5836 -86.1628 106° East 487 560 39,000  Level Jacksonville Center
11:47PM 31.5394 -86.0103 109° East 487 560 39,000  Level Jacksonville Center
11:48PM 31.4675 -85.8786 123° Southeast 469 540 39,000  Level Jacksonville Center
11:49PM 31.3931 -85.7569 126° Southeast 469 540 39,000  Level Jacksonville Center
11:50PM 31.3164 -85.6308 125° Southeast 469 540 39,000  Level Jacksonville Center
11:51PM 31.2417 -85.5144 127° Southeast 469 540 39,000  Level Jacksonville Center
11:52PM 31.1647 -85.3908 126° Southeast 463 533 39,000  Level Jacksonville Center
11:53PM 31.0878 -85.2675 126° Southeast 468 539 39,000  Level Jacksonville Center
11:54PM 31.0108 -85.1444 126° Southeast 468 539 39,000  Level Jacksonville Center
11:55PM 30.9314 -85.0214 127° Southeast 468 539 39,000  Level Jacksonville Center
11:56PM 30.8519 -84.8986 127° Southeast 468 539 39,000  Level Jacksonville Center
11:57PM 30.7747 -84.7736 126° Southeast 473 544 39,000  Level Jacksonville Center
11:58PM 30.6950 -84.6536 128° Southeast 473 544 39,000  Level Jacksonville Center
11:59PM 30.6150 -84.5317 127° Southeast 473 544 39,000  Level Jacksonville Center
12:00AM 30.5372 -84.4119 127° Southeast 467 537 39,000  Level Jacksonville Center
12:01AM 30.4572 -84.2928 128° Southeast 467 537 39,000  Level Jacksonville Center
12:02AM 30.3772 -84.1614 125° Southeast 467 537 39,000  Level Jacksonville Center
12:03AM 30.2989 -84.0475 129° Southeast 461 531 39,000  Level Jacksonville Center
12:04AM 30.2247 -83.9264 125° Southeast 466 536 39,000  Level Jacksonville Center
12:05AM 30.1464 -83.8078 127° Southeast 466 536 39,000  Level Jacksonville Center
12:06AM 30.0656 -83.6894 128° Southeast 466 536 39,000 -300 Level Jacksonville Center
12:07AM 29.9869 -83.5689 127° Southeast 466 536 38,400 -1,020 Descending Jacksonville Center
12:08AM 29.9083 -83.4508 128° Southeast 466 536 37,000 -1,140 Descending Jacksonville Center
12:09AM 29.8272 -83.3283 127° Southeast 471 542 36,200 -840 Descending Jacksonville Center
12:10AM 29.7506 -83.2156 128° Southeast 483 556 35,400 -900 Descending Jacksonville Center
12:11AM 29.6692 -83.0908 127° Southeast 490 564 34,400 -1,020 Descending Jacksonville Center
12:12AM 29.5839 -82.9642 128° Southeast 490 564 33,400 -1,500 Descending Jacksonville Center
12:13AM 29.5003 -82.8400 128° Southeast 495 570 31,400 -2,820 Descending Jacksonville Center
12:14AM 29.4125 -82.7067 127° Southeast 502 578 27,800 -3,180 Descending Jacksonville Center
12:15AM 29.3267 -82.5831 129° Southeast 502 578 25,100 -2,880 Descending Jacksonville Center
12:16AM 29.2511 -82.4689 127° Southeast 483 556 22,100 -2,820 Descending Jacksonville Center
12:17AM 29.1756 -82.3597 128° Southeast 459 528 19,500 -2,640 Descending Jacksonville Center
12:18AM 29.1042 -82.2533 128° Southeast 441 507 16,900 -2,580 Descending Jacksonville Center
12:19AM 29.0328 -82.1564 130° Southeast 420 483 14,300 -2,580 Descending Jacksonville Center
12:20AM 28.9675 -82.0547 126° Southeast 407 468 11,800 -1,680 Descending Jacksonville Center
12:21AM 28.9019 -81.9581 128° Southeast 375 432 11,000 -480 Descending Jacksonville Center
12:22AM 28.8514 -81.8756 125° Southeast 342 394 10,900 -540 Descending Jacksonville Center
12:23AM 28.8167 -81.8000 118° Southeast 292 336 10,000 -1,260 Descending Orlando TRACON
12:24AM 28.7833 -81.7167 115° Southeast 294 338 8,600 -1,500 Descending Orlando TRACON
12:25AM 28.7667 -81.6333 103° East 288 331 7,200 -1,440 Descending Orlando TRACON
12:26AM 28.7333 -81.5500 115° Southeast 281 323 5,800 -1,440 Descending Orlando TRACON
12:27AM 28.7000 -81.4833 120° Southeast 277 319 4,500 -1,140 Descending Orlando TRACON
12:28AM 28.6667 -81.4000 114° Southeast 254 292 3,600 -720 Descending Orlando TRACON
12:29AM 28.6500 -81.3333 106° East 220 253 3,000 -360 Descending Orlando TRACON
12:30AM 28.6167 -81.3000 139° Southeast 151 174 3,000 -180 Level Orlando TRACON
12:31AM 28.5667 -81.3000 180° South 144 166 2,700 -540 Descending Orlando TRACON
12:32AM 28.5333 -81.3000 180° South 142 163 2,000 -720 Descending Orlando TRACON
12:33AM 28.5000 -81.3000 180° South 132 152 1,400 -600 Descending Orlando TRACON
12:34AM 28.4667 -81.3000 180° South 120 138 800 -600 Descending Orlando TRACON
12:36AM 28.4294 -81.3090 180° South  Level Estimated
12:43AM 28.4294 -81.3090 24° Northeast  Level Estimated
12:44AM 28.4294 -81.3090 24° Northeast  Level Estimated
12:45AM 28.4294 -81.3090 24° Northeast  Level Estimated
12:46AM 28.4294 -81.3090 24° Northeast  Level Estimated